Time;durP1;ratioP1;P1;durP2;ratioP2;P2;SDS_P1;SDS_P2;PMS_P1;PMS_P2;Temp;Humidity;BMP_temperature;BMP_pressure;BME280_temperature;BME280_humidity;BME280_pressure;Samples;Min_cycle;Max_cycle;Signal;HPM_P1;HPM_P2
2021/09/08 00:01:53;;;;;;;;;;;21.60;66.20;;;;;;5069591;28;19922;-57
2021/09/08 00:04:19;;;;;;;;;;;21.60;66.20;;;;;;5065711;28;21500;-56
2021/09/08 00:06:44;;;;;;;;;;;21.60;66.20;;;;;;5059818;28;19919;-57
2021/09/08 00:09:09;;;;;;;;;;;21.60;66.10;;;;;;5054659;28;19920;-56
2021/09/08 00:11:37;;;;;;;;;;;21.60;66.10;;;;;;5071895;28;21403;-54
2021/09/08 00:14:02;;;;;;;;;;;21.60;66.00;;;;;;5055035;28;20563;-56
2021/09/08 00:16:27;;;;;;;;;;;21.70;66.10;;;;;;5075964;28;20416;-54
2021/09/08 00:18:53;;;;;;;;;;;21.60;66.00;;;;;;5075261;28;19924;-56
2021/09/08 00:21:18;;;;;;;;;;;21.60;65.90;;;;;;5072333;28;19913;-56
2021/09/08 00:23:44;;;;;;;;;;;21.60;65.90;;;;;;5069680;28;20299;-52
2021/09/08 00:26:09;;;;;;;;;;;21.60;65.90;;;;;;5069750;28;19919;-57
2021/09/08 00:28:35;;;;;;;;;;;21.60;65.80;;;;;;5053344;28;19917;-57
2021/09/08 00:31:00;;;;;;;;;;;21.60;65.80;;;;;;5057833;28;20372;-57
2021/09/08 00:33:26;;;;;;;;;;;21.70;65.80;;;;;;5041021;28;20003;-55
2021/09/08 00:35:51;;;;;;;;;;;21.60;65.70;;;;;;5073180;28;19920;-57
2021/09/08 00:38:16;;;;;;;;;;;21.60;65.60;;;;;;5076036;28;19982;-55
2021/09/08 00:40:42;;;;;;;;;;;21.60;65.70;;;;;;5081553;28;19912;-56
2021/09/08 00:43:07;;;;;;;;;;;21.60;65.70;;;;;;5071240;28;20374;-57
2021/09/08 00:45:33;;;;;;;;;;;21.60;65.60;;;;;;5069717;28;19977;-57
2021/09/08 00:47:58;;;;;;;;;;;21.60;65.60;;;;;;5047060;28;19912;-53
2021/09/08 00:50:24;;;;;;;;;;;21.60;65.60;;;;;;5066155;28;19956;-57
2021/09/08 00:52:49;;;;;;;;;;;21.60;65.50;;;;;;5062838;28;19916;-55
2021/09/08 00:55:15;;;;;;;;;;;21.60;65.40;;;;;;5073268;28;19946;-55
2021/09/08 00:57:40;;;;;;;;;;;21.60;65.30;;;;;;5076301;28;20206;-56
2021/09/08 01:00:06;;;;;;;;;;;21.60;65.10;;;;;;5072160;28;19912;-55
2021/09/08 01:02:32;;;;;;;;;;;21.60;65.40;;;;;;5071605;28;20319;-55
2021/09/08 01:04:57;;;;;;;;;;;21.60;65.40;;;;;;5072820;28;19916;-54
2021/09/08 01:07:22;;;;;;;;;;;21.60;65.20;;;;;;5069555;28;19952;-56
2021/09/08 01:09:48;;;;;;;;;;;21.60;65.30;;;;;;5076810;28;19988;-55
2021/09/08 01:12:13;;;;;;;;;;;21.60;65.30;;;;;;5068517;28;19924;-56
2021/09/08 01:14:40;;;;;;;;;;;21.60;65.00;;;;;;5068018;28;19916;-55
2021/09/08 01:17:06;;;;;;;;;;;21.60;65.10;;;;;;5068451;28;20305;-56
2021/09/08 01:19:31;;;;;;;;;;;21.60;65.20;;;;;;5051588;28;19920;-55
2021/09/08 01:21:57;;;;;;;;;;;21.60;65.30;;;;;;5076304;28;20319;-54
2021/09/08 01:24:23;;;;;;;;;;;21.60;65.20;;;;;;5045592;28;19923;-56
2021/09/08 01:26:48;;;;;;;;;;;21.60;65.10;;;;;;5074235;28;19917;-56
2021/09/08 01:29:14;;;;;;;;;;;21.60;65.10;;;;;;5047629;28;20545;-55
2021/09/08 01:31:39;;;;;;;;;;;21.60;65.10;;;;;;5063186;28;20012;-55
2021/09/08 01:34:05;;;;;;;;;;;21.60;65.10;;;;;;5050262;28;19912;-57
2021/09/08 01:36:40;;;;;;;;;;;21.60;65.20;;;;;;5075088;28;20396;-56
2021/09/08 01:39:05;;;;;;;;;;;21.60;65.10;;;;;;5045233;28;20270;-52
2021/09/08 01:41:30;;;;;;;;;;;21.60;65.00;;;;;;5071794;28;20015;-55
2021/09/08 01:43:56;;;;;;;;;;;21.60;65.10;;;;;;5071813;28;19938;-56
2021/09/08 01:46:22;;;;;;;;;;;21.60;65.00;;;;;;5083472;28;19912;-56
2021/09/08 01:48:47;;;;;;;;;;;21.60;65.00;;;;;;5063268;28;19916;-52
2021/09/08 01:51:13;;;;;;;;;;;21.60;65.00;;;;;;5073833;28;19927;-56
2021/09/08 01:53:38;;;;;;;;;;;21.60;65.00;;;;;;5062893;28;20358;-55
2021/09/08 01:56:04;;;;;;;;;;;21.60;65.00;;;;;;5050678;28;19916;-54
2021/09/08 01:58:31;;;;;;;;;;;21.60;64.70;;;;;;5044084;28;19924;-54
2021/09/08 02:00:56;;;;;;;;;;;21.60;64.70;;;;;;5081468;28;19916;-54
2021/09/08 02:03:22;;;;;;;;;;;21.60;64.20;;;;;;5050552;28;20292;-56
2021/09/08 02:05:48;;;;;;;;;;;21.60;64.60;;;;;;5065536;28;19916;-57
2021/09/08 02:08:13;;;;;;;;;;;21.60;64.60;;;;;;5076058;28;19912;-56
2021/09/08 02:10:39;;;;;;;;;;;21.60;64.60;;;;;;5057834;28;19919;-55
2021/09/08 02:13:05;;;;;;;;;;;21.60;64.60;;;;;;5070344;28;19923;-55
2021/09/08 02:15:31;;;;;;;;;;;21.50;64.80;;;;;;5069751;28;19913;-54
2021/09/08 02:17:57;;;;;;;;;;;21.60;64.60;;;;;;5069853;28;20391;-58
2021/09/08 02:20:22;;;;;;;;;;;21.60;64.60;;;;;;5069805;28;19916;-56
2021/09/08 02:22:48;;;;;;;;;;;21.60;64.50;;;;;;5069031;28;19913;-56
2021/09/08 02:25:13;;;;;;;;;;;21.50;64.40;;;;;;5075490;28;19919;-56
2021/09/08 02:27:39;;;;;;;;;;;21.50;64.40;;;;;;5076716;28;20377;-55
2021/09/08 02:30:05;;;;;;;;;;;21.60;63.30;;;;;;5050103;28;20565;-55
2021/09/08 02:32:30;;;;;;;;;;;21.60;64.50;;;;;;5068686;28;19913;-55
2021/09/08 02:34:56;;;;;;;;;;;21.60;64.50;;;;;;5075047;28;19920;-56
2021/09/08 02:37:21;;;;;;;;;;;21.60;64.10;;;;;;5073488;28;20535;-55
2021/09/08 02:39:47;;;;;;;;;;;21.50;64.30;;;;;;5080971;28;19927;-56
2021/09/08 02:42:13;;;;;;;;;;;21.60;64.50;;;;;;5059253;28;19912;-54
2021/09/08 02:44:38;;;;;;;;;;;21.50;64.10;;;;;;5067750;28;19913;-55
2021/09/08 02:47:04;;;;;;;;;;;21.60;64.30;;;;;;5073171;28;19927;-55
2021/09/08 02:49:29;;;;;;;;;;;21.50;64.30;;;;;;5077317;28;19919;-56
2021/09/08 02:51:55;;;;;;;;;;;21.50;64.20;;;;;;5055962;28;20719;-53
2021/09/08 02:54:20;;;;;;;;;;;21.50;64.20;;;;;;5072886;28;19912;-58
2021/09/08 02:56:45;;;;;;;;;;;21.50;64.20;;;;;;5072886;28;19920;-55
2021/09/08 02:59:11;;;;;;;;;;;21.60;64.20;;;;;;5068610;28;19931;-56
2021/09/08 03:01:36;;;;;;;;;;;21.50;64.20;;;;;;5081494;28;20383;-53
2021/09/08 03:04:02;;;;;;;;;;;21.50;64.10;;;;;;5082022;28;19916;-57
2021/09/08 03:06:27;;;;;;;;;;;21.50;64.00;;;;;;5073680;28;19912;-55
2021/09/08 03:08:53;;;;;;;;;;;21.50;64.10;;;;;;5064067;28;19916;-56
2021/09/08 03:11:18;;;;;;;;;;;21.60;63.60;;;;;;5068421;28;20395;-56
2021/09/08 03:13:44;;;;;;;;;;;21.50;63.90;;;;;;5072020;28;19945;-56
2021/09/08 03:16:09;;;;;;;;;;;21.50;64.10;;;;;;5072671;28;20517;-57
2021/09/08 03:18:34;;;;;;;;;;;21.50;64.00;;;;;;5071076;28;19920;-55
2021/09/08 03:21:00;;;;;;;;;;;21.50;64.00;;;;;;5074846;28;20332;-54
2021/09/08 03:23:25;;;;;;;;;;;21.50;64.00;;;;;;5078007;28;19965;-55
2021/09/08 03:25:51;;;;;;;;;;;21.50;64.10;;;;;;5068233;28;19912;-53
2021/09/08 03:28:16;;;;;;;;;;;21.50;64.00;;;;;;5051137;28;19921;-57
2021/09/08 03:30:42;;;;;;;;;;;21.50;64.10;;;;;;5071152;28;20323;-56
2021/09/08 03:33:07;;;;;;;;;;;21.50;63.90;;;;;;5055842;28;19920;-56
2021/09/08 03:35:33;;;;;;;;;;;21.50;63.90;;;;;;5055450;28;19912;-57
2021/09/08 03:37:58;;;;;;;;;;;21.50;63.90;;;;;;5072563;28;19924;-55
2021/09/08 03:40:24;;;;;;;;;;;21.50;63.90;;;;;;5073974;28;20137;-57
2021/09/08 03:42:49;;;;;;;;;;;21.50;63.70;;;;;;5066612;28;19913;-54
2021/09/08 03:45:14;;;;;;;;;;;21.50;63.70;;;;;;5069527;28;19927;-55
2021/09/08 03:47:40;;;;;;;;;;;21.50;63.60;;;;;;5067454;28;19935;-56
2021/09/08 03:50:06;;;;;;;;;;;21.50;63.70;;;;;;5076324;28;19920;-55
2021/09/08 03:52:31;;;;;;;;;;;21.50;63.80;;;;;;5065349;28;19919;-56
2021/09/08 03:54:57;;;;;;;;;;;21.50;63.80;;;;;;5078925;28;20583;-56
2021/09/08 03:57:22;;;;;;;;;;;21.50;63.80;;;;;;5069286;28;20286;-55
2021/09/08 03:59:47;;;;;;;;;;;21.50;63.70;;;;;;5072803;28;19921;-54
2021/09/08 04:02:13;;;;;;;;;;;21.50;63.70;;;;;;5072863;28;19923;-57
2021/09/08 04:04:39;;;;;;;;;;;21.50;63.60;;;;;;5074670;28;20376;-57
2021/09/08 04:07:04;;;;;;;;;;;21.40;63.50;;;;;;5073101;28;19922;-55
2021/09/08 04:09:30;;;;;;;;;;;21.40;63.50;;;;;;5066907;28;19913;-56
2021/09/08 04:11:56;;;;;;;;;;;21.50;63.50;;;;;;5054531;28;20392;-54
2021/09/08 04:14:21;;;;;;;;;;;21.40;63.60;;;;;;5057547;28;20405;-54
2021/09/08 04:16:46;;;;;;;;;;;21.40;63.40;;;;;;5071737;28;19920;-55
2021/09/08 04:19:12;;;;;;;;;;;21.50;63.20;;;;;;5076247;28;20045;-55
2021/09/08 04:21:37;;;;;;;;;;;21.40;63.50;;;;;;5079048;28;19957;-52
2021/09/08 04:24:03;;;;;;;;;;;21.40;63.40;;;;;;5081917;28;19919;-56
2021/09/08 04:26:28;;;;;;;;;;;21.40;63.50;;;;;;5058281;28;19913;-55
2021/09/08 04:28:54;;;;;;;;;;;21.40;63.40;;;;;;5071716;28;19916;-57
2021/09/08 04:31:19;;;;;;;;;;;21.50;63.60;;;;;;5076453;28;19924;-54
2021/09/08 04:33:45;;;;;;;;;;;21.40;63.70;;;;;;5079040;28;20253;-56
2021/09/08 04:36:10;;;;;;;;;;;21.40;63.80;;;;;;5057542;28;19978;-56
2021/09/08 04:38:38;;;;;;;;;;;21.40;63.90;;;;;;5068841;28;19916;-52
2021/09/08 04:41:04;;;;;;;;;;;21.40;63.90;;;;;;5073193;28;20295;-55
2021/09/08 04:43:29;;;;;;;;;;;21.40;64.50;;;;;;5053421;28;19923;-56
2021/09/08 04:45:55;;;;;;;;;;;21.40;64.60;;;;;;5079485;28;19913;-56
2021/09/08 04:48:20;;;;;;;;;;;21.30;64.60;;;;;;5050613;28;20386;-57
2021/09/08 04:50:46;;;;;;;;;;;21.30;64.80;;;;;;5056635;28;20369;-56
2021/09/08 04:53:11;;;;;;;;;;;21.30;65.50;;;;;;5080038;28;19916;-56
2021/09/08 04:55:37;;;;;;;;;;;21.30;65.10;;;;;;5073176;28;20022;-57
2021/09/08 04:58:02;;;;;;;;;;;21.30;65.30;;;;;;5068226;28;19924;-52
2021/09/08 05:00:28;;;;;;;;;;;21.30;65.50;;;;;;5071955;28;19920;-58
2021/09/08 05:02:53;;;;;;;;;;;21.30;65.40;;;;;;5073061;28;19935;-56
2021/09/08 05:05:19;;;;;;;;;;;21.30;65.30;;;;;;5064032;28;19920;-53
2021/09/08 05:07:44;;;;;;;;;;;21.30;65.10;;;;;;5076978;28;19924;-56
2021/09/08 05:10:10;;;;;;;;;;;21.30;65.10;;;;;;5073220;28;19912;-53
2021/09/08 05:12:35;;;;;;;;;;;21.30;64.80;;;;;;5073304;28;19917;-57
2021/09/08 05:15:01;;;;;;;;;;;21.30;64.80;;;;;;5063308;28;19938;-56
2021/09/08 05:17:27;;;;;;;;;;;21.30;64.60;;;;;;5077203;28;19927;-55
2021/09/08 05:19:52;;;;;;;;;;;21.30;64.70;;;;;;5070202;28;20345;-55
2021/09/08 05:22:18;;;;;;;;;;;21.30;64.70;;;;;;5075495;28;19932;-57
2021/09/08 05:24:43;;;;;;;;;;;21.30;64.60;;;;;;5082869;28;19932;-56
2021/09/08 05:27:09;;;;;;;;;;;21.30;64.60;;;;;;5045903;28;20349;-57
2021/09/08 05:29:34;;;;;;;;;;;21.30;64.70;;;;;;5071564;28;19927;-57
2021/09/08 05:31:59;;;;;;;;;;;21.30;64.70;;;;;;5059293;28;19912;-56
2021/09/08 05:34:25;;;;;;;;;;;21.30;64.50;;;;;;5070004;28;20370;-57
2021/09/08 05:36:50;;;;;;;;;;;21.30;64.60;;;;;;5066991;28;19912;-52
2021/09/08 05:39:16;;;;;;;;;;;21.30;64.50;;;;;;5066545;28;19965;-57
2021/09/08 05:41:41;;;;;;;;;;;21.30;64.30;;;;;;5070161;28;19916;-55
2021/09/08 05:44:07;;;;;;;;;;;21.20;64.30;;;;;;5082169;28;19916;-56
2021/09/08 05:46:32;;;;;;;;;;;21.30;64.30;;;;;;5068083;28;20629;-54
2021/09/08 05:48:58;;;;;;;;;;;21.20;64.30;;;;;;5066852;28;19920;-57
2021/09/08 05:51:23;;;;;;;;;;;21.30;64.40;;;;;;5074781;28;20465;-57
2021/09/08 05:53:48;;;;;;;;;;;21.20;65.00;;;;;;5073104;28;19943;-56
2021/09/08 05:56:14;;;;;;;;;;;21.20;65.20;;;;;;5070764;28;20605;-57
2021/09/08 05:58:39;;;;;;;;;;;21.20;65.00;;;;;;5076007;28;19920;-54
2021/09/08 06:01:05;;;;;;;;;;;21.20;64.50;;;;;;5049554;28;19973;-60
2021/09/08 06:03:30;;;;;;;;;;;21.30;64.40;;;;;;5052732;28;19926;-57
2021/09/08 06:05:56;;;;;;;;;;;21.20;63.50;;;;;;5083031;28;20400;-57
2021/09/08 06:08:21;;;;;;;;;;;21.20;62.80;;;;;;5063158;28;19920;-56
2021/09/08 06:10:47;;;;;;;;;;;21.20;62.90;;;;;;5076084;28;20289;-55
2021/09/08 06:13:12;;;;;;;;;;;21.10;62.60;;;;;;5070382;28;19930;-56
2021/09/08 06:15:38;;;;;;;;;;;21.10;62.20;;;;;;5071930;28;19919;-56
2021/09/08 06:18:05;;;;;;;;;;;21.10;62.20;;;;;;5048576;28;19924;-59
2021/09/08 06:20:30;;;;;;;;;;;21.10;62.20;;;;;;5078422;28;19959;-56
2021/09/08 06:22:56;;;;;;;;;;;21.10;62.30;;;;;;5052324;28;19948;-56
2021/09/08 06:25:21;;;;;;;;;;;21.10;62.30;;;;;;5052042;28;20042;-57
2021/09/08 06:27:47;;;;;;;;;;;21.20;62.40;;;;;;5075691;28;19916;-56
2021/09/08 06:30:12;;;;;;;;;;;21.10;62.40;;;;;;5071409;28;20258;-57
2021/09/08 06:32:38;;;;;;;;;;;21.10;62.30;;;;;;5073329;28;19913;-56
2021/09/08 06:35:03;;;;;;;;;;;21.10;62.30;;;;;;5069541;28;19913;-57
2021/09/08 06:37:29;;;;;;;;;;;21.10;62.40;;;;;;5075245;28;19971;-60
2021/09/08 06:39:54;;;;;;;;;;;21.10;62.30;;;;;;5069898;28;19916;-57
2021/09/08 06:42:20;;;;;;;;;;;21.10;62.00;;;;;;5057645;28;19928;-57
2021/09/08 06:44:49;;;;;;;;;;;21.10;61.80;;;;;;5066741;28;19912;-57
2021/09/08 06:47:15;;;;;;;;;;;21.10;62.10;;;;;;5070139;28;19920;-57
2021/09/08 06:49:40;;;;;;;;;;;21.10;62.00;;;;;;5076382;28;19923;-55
2021/09/08 06:52:06;;;;;;;;;;;21.10;62.20;;;;;;5078653;28;19920;-57
2021/09/08 06:54:31;;;;;;;;;;;21.00;62.00;;;;;;5073897;28;19976;-56
2021/09/08 06:56:56;;;;;;;;;;;21.00;62.10;;;;;;5057261;28;20428;-56
2021/09/08 06:59:22;;;;;;;;;;;21.00;62.30;;;;;;5066434;28;19963;-60
2021/09/08 07:01:48;;;;;;;;;;;21.00;62.40;;;;;;5080381;28;20312;-56
2021/09/08 07:04:14;;;;;;;;;;;21.00;62.60;;;;;;5062240;28;19920;-54
2021/09/08 07:06:39;;;;;;;;;;;21.00;62.80;;;;;;5064211;28;19913;-57
2021/09/08 07:09:05;;;;;;;;;;;21.00;63.00;;;;;;5073710;28;19924;-57
2021/09/08 07:11:30;;;;;;;;;;;21.00;63.10;;;;;;5074609;28;20432;-57
2021/09/08 07:13:55;;;;;;;;;;;21.00;63.20;;;;;;5073823;28;20100;-56
2021/09/08 07:16:21;;;;;;;;;;;20.90;63.20;;;;;;5077531;28;19916;-55
2021/09/08 07:18:46;;;;;;;;;;;20.90;63.00;;;;;;5072535;28;19916;-55
2021/09/08 07:21:12;;;;;;;;;;;21.00;63.10;;;;;;5077782;28;19912;-57
2021/09/08 07:23:37;;;;;;;;;;;20.90;63.10;;;;;;5078967;28;19936;-56
2021/09/08 07:26:03;;;;;;;;;;;20.90;63.10;;;;;;5080725;28;19916;-53
2021/09/08 07:28:28;;;;;;;;;;;20.90;63.40;;;;;;5074626;28;19920;-56
2021/09/08 07:30:54;;;;;;;;;;;20.90;64.10;;;;;;5089186;28;20382;-56
2021/09/08 07:33:22;;;;;;;;;;;21.00;64.60;;;;;;5075500;28;19927;-57
2021/09/08 07:35:48;;;;;;;;;;;21.00;65.00;;;;;;5081245;28;19916;-56
2021/09/08 07:38:17;;;;;;;;;;;21.00;64.40;;;;;;5082161;28;19928;-58
2021/09/08 07:40:42;;;;;;;;;;;20.90;64.70;;;;;;5073013;28;19917;-57
2021/09/08 07:43:07;;;;;;;;;;;21.00;65.00;;;;;;5053815;28;20441;-57
2021/09/08 07:45:33;;;;;;;;;;;21.00;65.00;;;;;;5083882;28;19924;-57
2021/09/08 07:47:58;;;;;;;;;;;21.00;64.70;;;;;;5088119;28;19912;-57
2021/09/08 07:50:24;;;;;;;;;;;21.00;64.70;;;;;;5070743;28;19922;-55
2021/09/08 07:52:49;;;;;;;;;;;21.00;64.80;;;;;;5078866;28;19927;-56
2021/09/08 07:55:15;;;;;;;;;;;21.00;64.40;;;;;;5071269;28;20407;-55
2021/09/08 07:57:40;;;;;;;;;;;21.10;64.40;;;;;;5075450;28;19912;-56
2021/09/08 08:00:06;;;;;;;;;;;21.00;64.70;;;;;;5084191;28;19912;-56
2021/09/08 08:02:40;;;;;;;;;;;21.00;64.90;;;;;;5079577;28;20288;-55
2021/09/08 08:05:06;;;;;;;;;;;21.00;64.70;;;;;;5051608;28;20390;-57
2021/09/08 08:07:31;;;;;;;;;;;21.00;64.60;;;;;;5077845;28;19919;-55
2021/09/08 08:09:57;;;;;;;;;;;21.00;64.50;;;;;;5080260;28;19920;-55
2021/09/08 08:12:22;;;;;;;;;;;21.00;64.50;;;;;;5079089;28;19961;-57
2021/09/08 08:14:48;;;;;;;;;;;21.00;64.60;;;;;;5076201;28;20287;-56
2021/09/08 08:17:13;;;;;;;;;;;21.00;64.50;;;;;;5073244;28;20007;-57
2021/09/08 08:19:38;;;;;;;;;;;21.00;64.50;;;;;;5084560;28;19924;-57
2021/09/08 08:22:04;;;;;;;;;;;21.00;64.50;;;;;;5083138;28;19916;-57
2021/09/08 08:24:29;;;;;;;;;;;21.00;64.70;;;;;;5078082;28;20348;-62
2021/09/08 08:26:57;;;;;;;;;;;21.00;64.70;;;;;;5076892;28;19923;-57
2021/09/08 08:29:22;;;;;;;;;;;21.00;64.70;;;;;;5075311;28;19912;-53
2021/09/08 08:31:47;;;;;;;;;;;21.00;65.00;;;;;;5079767;28;19919;-57
2021/09/08 08:34:13;;;;;;;;;;;21.00;64.70;;;;;;5082315;28;19912;-55
2021/09/08 08:36:38;;;;;;;;;;;21.00;65.00;;;;;;5069666;28;19917;-56
2021/09/08 08:39:04;;;;;;;;;;;21.00;64.50;;;;;;5071570;28;19927;-58
2021/09/08 08:41:29;;;;;;;;;;;21.00;64.80;;;;;;5068710;28;19924;-57
2021/09/08 08:43:55;;;;;;;;;;;21.00;64.50;;;;;;5054125;28;20314;-58
2021/09/08 08:46:21;;;;;;;;;;;21.00;63.50;;;;;;5072684;28;19916;-56
2021/09/08 08:48:47;;;;;;;;;;;21.00;63.30;;;;;;5067780;28;19913;-58
2021/09/08 08:51:13;;;;;;;;;;;21.00;62.80;;;;;;5061139;28;19927;-57
2021/09/08 08:53:38;;;;;;;;;;;21.00;63.60;;;;;;5060535;28;19923;-57
2021/09/08 08:56:04;;;;;;;;;;;21.00;63.70;;;;;;5063826;28;19920;-57
2021/09/08 08:58:29;;;;;;;;;;;21.00;63.90;;;;;;5072924;28;19959;-57
2021/09/08 09:01:13;;;;;;;;;;;20.90;63.30;;;;;;5071754;28;19912;-56
2021/09/08 09:03:39;;;;;;;;;;;21.00;63.00;;;;;;5076451;28;19920;-57
2021/09/08 09:06:04;;;;;;;;;;;21.00;63.20;;;;;;5083695;28;19916;-55
2021/09/08 09:08:30;;;;;;;;;;;20.90;62.90;;;;;;5074236;28;19916;-55
2021/09/08 09:10:57;;;;;;;;;;;20.90;62.80;;;;;;5074366;28;19988;-57
2021/09/08 09:13:29;;;;;;;;;;;20.90;63.00;;;;;;5037208;28;19935;-58
2021/09/08 09:16:06;;;;;;;;;;;20.90;62.60;;;;;;5042603;28;1691087;-61
2021/09/08 09:18:39;;;;;;;;;;;20.90;62.30;;;;;;5070154;28;19916;-56
2021/09/08 09:21:08;;;;;;;;;;;20.90;62.10;;;;;;5063135;28;20007;-57
2021/09/08 09:23:46;;;;;;;;;;;20.90;61.50;;;;;;5074805;28;19920;-57
2021/09/08 09:26:12;;;;;;;;;;;20.90;61.80;;;;;;5078255;28;19916;-58
2021/09/08 09:28:43;;;;;;;;;;;20.90;58.40;;;;;;5076536;28;19920;-58
2021/09/08 09:31:15;;;;;;;;;;;20.90;60.80;;;;;;5075485;28;19954;-58
2021/09/08 09:33:42;;;;;;;;;;;20.90;61.30;;;;;;5070633;28;19913;-57
2021/09/08 09:36:20;;;;;;;;;;;20.80;61.40;;;;;;5057077;28;20542;-55
2021/09/08 09:38:46;;;;;;;;;;;20.90;61.20;;;;;;5079013;28;19950;-57
2021/09/08 09:41:11;;;;;;;;;;;20.80;61.20;;;;;;5081259;28;19957;-57
2021/09/08 09:43:40;;;;;;;;;;;20.80;61.30;;;;;;5073026;28;19917;-56
2021/09/08 09:46:07;;;;;;;;;;;20.80;61.20;;;;;;5036404;28;19919;-57
2021/09/08 09:48:32;;;;;;;;;;;20.80;61.10;;;;;;5072441;28;20433;-56
2021/09/08 09:51:00;;;;;;;;;;;20.80;60.80;;;;;;5046444;28;19966;-57
2021/09/08 09:53:27;;;;;;;;;;;20.80;61.30;;;;;;5066400;28;19955;-57
2021/09/08 09:55:53;;;;;;;;;;;20.80;60.20;;;;;;5079064;28;19912;-57
2021/09/08 09:58:19;;;;;;;;;;;20.80;59.80;;;;;;5073771;28;19920;-57
2021/09/08 10:00:44;;;;;;;;;;;20.80;60.40;;;;;;5067030;28;19966;-57
2021/09/08 10:03:10;;;;;;;;;;;20.80;60.50;;;;;;5046839;28;19912;-58
2021/09/08 10:05:35;;;;;;;;;;;20.80;60.40;;;;;;5075069;28;19924;-57
2021/09/08 10:08:01;;;;;;;;;;;20.80;59.80;;;;;;5064925;28;19912;-55
2021/09/08 10:10:29;;;;;;;;;;;20.80;59.60;;;;;;5070304;28;20365;-57
2021/09/08 10:12:56;;;;;;;;;;;20.80;60.00;;;;;;5054873;28;20150;-55
2021/09/08 10:15:22;;;;;;;;;;;20.80;59.80;;;;;;5058994;28;19916;-53
2021/09/08 10:17:47;;;;;;;;;;;20.80;59.00;;;;;;5073100;22;19924;-59
2021/09/08 10:20:16;;;;;;;;;;;20.80;58.50;;;;;;5078581;28;19923;-59
2021/09/08 10:22:42;;;;;;;;;;;20.80;58.60;;;;;;5089623;28;20010;-61
2021/09/08 10:25:25;;;;;;;;;;;20.80;57.90;;;;;;5099774;28;20002;-59
2021/09/08 10:27:51;;;;;;;;;;;20.80;58.40;;;;;;5081895;28;19920;-60
2021/09/08 10:30:17;;;;;;;;;;;20.80;58.90;;;;;;5080880;28;19947;-61
2021/09/08 10:32:42;;;;;;;;;;;20.80;59.00;;;;;;5081158;28;19919;-59
2021/09/08 10:35:12;;;;;;;;;;;20.80;58.10;;;;;;5099650;28;19912;-59
2021/09/08 10:37:38;;;;;;;;;;;20.70;57.70;;;;;;5098322;28;19964;-59
2021/09/08 10:40:05;;;;;;;;;;;20.80;57.10;;;;;;5099136;28;19921;-59
2021/09/08 10:42:50;;;;;;;;;;;20.80;56.80;;;;;;5099013;28;20049;-59
2021/09/08 10:45:18;;;;;;;;;;;20.80;57.40;;;;;;5099227;28;20011;-57
2021/09/08 10:47:43;;;;;;;;;;;20.80;57.60;;;;;;5081121;28;19916;-60
2021/09/08 10:50:09;;;;;;;;;;;20.70;57.40;;;;;;5098608;28;19972;-60
2021/09/08 10:52:35;;;;;;;;;;;20.80;57.10;;;;;;5098188;28;19916;-59
2021/09/08 10:55:00;;;;;;;;;;;20.80;56.80;;;;;;5099258;28;19912;-59
2021/09/08 10:57:41;;;;;;;;;;;20.70;57.20;;;;;;5098931;28;19912;-60
2021/09/08 11:00:07;;;;;;;;;;;20.80;56.10;;;;;;5098612;28;20006;-61
2021/09/08 11:02:37;;;;;;;;;;;20.80;55.70;;;;;;5098143;28;20019;-61
2021/09/08 11:05:02;;;;;;;;;;;20.70;55.80;;;;;;5098799;28;19926;-60
2021/09/08 11:07:28;;;;;;;;;;;20.80;55.20;;;;;;5080999;28;19916;-58
2021/09/08 11:09:53;;;;;;;;;;;20.70;56.00;;;;;;5098127;28;19915;-60
2021/09/08 11:12:18;;;;;;;;;;;20.80;56.30;;;;;;5111058;22;19928;-59
2021/09/08 11:14:44;;;;;;;;;;;20.80;56.80;;;;;;5096738;28;19912;-60
2021/09/08 11:17:17;;;;;;;;;;;20.70;57.80;;;;;;5096158;28;19921;-59
2021/09/08 11:19:47;;;;;;;;;;;20.70;57.80;;;;;;5096711;28;19916;-58
2021/09/08 11:22:15;;;;;;;;;;;20.80;57.90;;;;;;5087465;28;19917;-58
2021/09/08 11:24:41;;;;;;;;;;;20.70;57.90;;;;;;5098772;28;20356;-58
2021/09/08 11:27:07;;;;;;;;;;;20.80;56.20;;;;;;5092913;28;19915;-63
2021/09/08 11:29:33;;;;;;;;;;;20.80;57.30;;;;;;5087124;28;20618;-59
2021/09/08 11:31:58;;;;;;;;;;;20.80;56.70;;;;;;5098102;28;19961;-60
2021/09/08 11:34:27;;;;;;;;;;;20.70;56.20;;;;;;5085644;28;20303;-60
2021/09/08 11:36:56;;;;;;;;;;;20.80;56.20;;;;;;5072320;28;19939;-61
2021/09/08 11:39:21;;;;;;;;;;;20.80;56.40;;;;;;5089653;28;19963;-58
2021/09/08 11:41:53;;;;;;;;;;;20.80;56.70;;;;;;5094700;28;20396;-59
2021/09/08 11:44:19;;;;;;;;;;;20.80;56.20;;;;;;5076500;28;19961;-56
2021/09/08 11:46:44;;;;;;;;;;;20.80;56.00;;;;;;5094877;28;19928;-60
2021/09/08 11:49:11;;;;;;;;;;;20.80;54.60;;;;;;5098763;28;19912;-59
2021/09/08 11:51:38;;;;;;;;;;;20.70;55.20;;;;;;5097622;28;19919;-60
2021/09/08 11:54:04;;;;;;;;;;;20.70;55.30;;;;;;5092067;28;20391;-61
2021/09/08 11:56:30;;;;;;;;;;;20.70;55.60;;;;;;5092254;28;19919;-60
2021/09/08 11:58:55;;;;;;;;;;;20.80;55.40;;;;;;5085351;28;19916;-61
2021/09/08 12:01:22;;;;;;;;;;;20.80;55.70;;;;;;5076270;28;19970;-60
2021/09/08 12:03:50;;;;;;;;;;;20.80;55.20;;;;;;5089722;28;20364;-59
2021/09/08 12:06:16;;;;;;;;;;;20.80;55.50;;;;;;5084604;28;19923;-60
2021/09/08 12:08:48;;;;;;;;;;;20.70;55.10;;;;;;5062048;28;20006;-60
2021/09/08 12:11:33;;;;;;;;;;;20.70;55.30;;;;;;5089157;28;19912;-59
2021/09/08 12:14:16;;;;;;;;;;;20.80;54.50;;;;;;5089666;28;19927;-59
2021/09/08 12:16:42;;;;;;;;;;;20.80;55.10;;;;;;5095327;28;19916;-60
2021/09/08 12:19:16;;;;;;;;;;;20.80;54.90;;;;;;5104021;28;19916;-59
2021/09/08 12:21:42;;;;;;;;;;;20.80;54.80;;;;;;5088396;28;19920;-60
2021/09/08 12:24:17;;;;;;;;;;;20.80;54.00;;;;;;5104744;28;20521;-60
2021/09/08 12:26:43;;;;;;;;;;;20.80;53.70;;;;;;5068088;28;19912;-59
2021/09/08 12:29:08;;;;;;;;;;;20.80;53.20;;;;;;5087207;28;19922;-59
2021/09/08 12:31:44;;;;;;;;;;;20.80;52.10;;;;;;5090928;28;19912;-59
2021/09/08 12:34:10;;;;;;;;;;;20.80;52.10;;;;;;5095796;28;19923;-59
2021/09/08 12:36:35;;;;;;;;;;;20.80;52.00;;;;;;5091819;28;19912;-60
2021/09/08 12:39:11;;;;;;;;;;;20.80;51.70;;;;;;5068621;28;19920;-60
2021/09/08 12:41:38;;;;;;;;;;;20.80;51.30;;;;;;5097260;28;19918;-60
2021/09/08 12:44:04;;;;;;;;;;;20.70;52.70;;;;;;5087795;28;19919;-58
2021/09/08 12:46:39;;;;;;;;;;;20.80;53.00;;;;;;5099198;28;19912;-61
2021/09/08 12:49:05;;;;;;;;;;;20.80;52.10;;;;;;5097854;28;19939;-61
2021/09/08 12:51:30;;;;;;;;;;;20.80;51.20;;;;;;5084089;28;20011;-60
2021/09/08 12:53:56;;;;;;;;;;;20.80;51.40;;;;;;5092288;28;19916;-61
2021/09/08 12:56:21;;;;;;;;;;;20.80;51.50;;;;;;5087113;28;20605;-60
2021/09/08 12:58:47;;;;;;;;;;;20.80;51.10;;;;;;5078981;28;19939;-61
2021/09/08 13:01:13;;;;;;;;;;;20.80;52.30;;;;;;5092617;28;19936;-59
2021/09/08 13:03:38;;;;;;;;;;;20.80;52.10;;;;;;5087742;28;20380;-60
2021/09/08 13:06:04;;;;;;;;;;;20.80;52.50;;;;;;5101696;28;19916;-60
2021/09/08 13:08:30;;;;;;;;;;;20.80;52.70;;;;;;5080265;28;20544;-59
2021/09/08 13:10:55;;;;;;;;;;;20.80;52.60;;;;;;5103545;28;19912;-60
2021/09/08 13:13:21;;;;;;;;;;;20.80;52.50;;;;;;5091094;28;20288;-59
2021/09/08 13:15:46;;;;;;;;;;;20.80;52.80;;;;;;5087759;28;19912;-58
2021/09/08 13:18:11;;;;;;;;;;;20.80;53.00;;;;;;5095972;28;19920;-60
2021/09/08 13:20:37;;;;;;;;;;;20.80;52.30;;;;;;5086121;28;19912;-60
2021/09/08 13:23:04;;;;;;;;;;;20.80;53.10;;;;;;5090312;28;20296;-60
2021/09/08 13:25:29;;;;;;;;;;;20.80;54.20;;;;;;5089060;28;19923;-60
2021/09/08 13:27:55;;;;;;;;;;;20.80;54.80;;;;;;5092156;28;19911;-60
2021/09/08 13:30:20;;;;;;;;;;;20.80;53.80;;;;;;5091408;28;19918;-59
2021/09/08 13:32:46;;;;;;;;;;;20.80;54.60;;;;;;5092627;28;19922;-61
2021/09/08 13:35:11;;;;;;;;;;;20.80;54.10;;;;;;5090734;28;19962;-59
2021/09/08 13:37:37;;;;;;;;;;;20.80;54.00;;;;;;5096873;28;19912;-58
2021/09/08 13:40:02;;;;;;;;;;;20.80;54.40;;;;;;5095159;28;20292;-62
2021/09/08 13:42:28;;;;;;;;;;;20.80;54.40;;;;;;5096766;28;19912;-59
2021/09/08 13:44:53;;;;;;;;;;;20.90;54.50;;;;;;5095982;28;19915;-60
2021/09/08 13:47:18;;;;;;;;;;;20.80;54.90;;;;;;5087901;28;20305;-60
2021/09/08 13:49:44;;;;;;;;;;;20.90;55.60;;;;;;5067904;28;19916;-60
2021/09/08 13:52:09;;;;;;;;;;;20.80;54.80;;;;;;5086318;28;19923;-59
2021/09/08 13:54:37;;;;;;;;;;;20.90;54.20;;;;;;5096823;28;19941;-59
2021/09/08 13:57:02;;;;;;;;;;;20.90;54.20;;;;;;5093722;28;19916;-61
2021/09/08 13:59:28;;;;;;;;;;;20.90;54.60;;;;;;5095669;28;19916;-58
2021/09/08 14:01:55;;;;;;;;;;;20.80;54.40;;;;;;5095162;28;19916;-59
2021/09/08 14:04:20;;;;;;;;;;;20.90;55.00;;;;;;5068111;28;19943;-57
2021/09/08 14:06:46;;;;;;;;;;;20.90;55.70;;;;;;5096347;28;20361;-58
2021/09/08 14:09:11;;;;;;;;;;;20.90;54.30;;;;;;5090514;28;19922;-60
2021/09/08 14:11:37;;;;;;;;;;;20.90;54.00;;;;;;5079136;28;20550;-60